KTBN

Waynesville-St Robert Regional Forney Field Airport

Fort Leonard Wood, Missouri, USA
METAR KTBN 100556Z AUTO 33004KT 10SM CLR M07/M10 A3030 RMK AO2 SLP279 T10661098 11024 21068 400301081 50002 $
Observed Flight Rules
Dec-10 @ 05:56 UTC (32 minutes ago) Visual Flight Rules
Wind Visibility Clouds
330° at 4 knots 10 miles
  • Clear skies
Temperatures Readings
Current -7°C / 19°F
Dewpoint -10°C / 14°F
Humidity 79%
Altimeter 30.3" Hg
Pressure 1027.9 hPa
Elevation 353
METAR KTBN 100556Z AUTO 33004KT 10SM CLR M07/M10 A3030 RMK AO2 SLP279 T10661098 11024 21068 400301081 50002 $
Observed Flight Rules
Dec-10 @ 05:56 UTC
(32 minutes ago)
VFR
Wind Visibility
330° at 4 knots 10 miles
Clouds
  • Clear skies
Temperature Dewpoint
-7°C / 19°F -10°C / 14°F
Humidity Altimeter Pressure
79% 30.3" Hg 1027.9 hPa